Time;durP1;ratioP1;P1;durP2;ratioP2;P2;SDS_P1;SDS_P2;PMS_P1;PMS_P2;Temp;Humidity;BMP_temperature;BMP_pressure;BME280_temperature;BME280_humidity;BME280_pressure;Samples;Min_cycle;Max_cycle;Signal;HPM_P1;HPM_P2
2021/05/26 00:01:09;;;;;;;3.87;2.80;;;9.60;99.90;;;;;;5070610;28;20270;-68
2021/05/26 00:03:35;;;;;;;3.87;2.70;;;9.60;99.90;;;;;;5071055;28;20289;-67
2021/05/26 00:06:01;;;;;;;2.93;2.67;;;9.60;99.90;;;;;;5071178;28;20177;-67
2021/05/26 00:08:32;;;;;;;2.73;2.40;;;9.60;99.90;;;;;;5053361;28;20533;-67
2021/05/26 00:10:59;;;;;;;3.50;2.90;;;9.50;99.90;;;;;;5070754;28;20199;-67
2021/05/26 00:13:25;;;;;;;3.03;2.60;;;9.60;99.90;;;;;;5071276;28;20181;-67
2021/05/26 00:15:52;;;;;;;2.50;2.30;;;9.60;99.90;;;;;;5070771;28;20205;-68
2021/05/26 00:18:17;;;;;;;6.30;2.80;;;9.60;99.90;;;;;;5070815;28;20227;-67
2021/05/26 00:20:44;;;;;;;6.43;2.40;;;9.50;99.90;;;;;;5070321;28;20527;-67
2021/05/26 00:23:10;;;;;;;3.20;2.37;;;9.50;99.90;;;;;;5054953;28;20764;-67
2021/05/26 00:25:35;;;;;;;2.50;2.30;;;9.50;99.90;;;;;;5075187;28;20252;-66
2021/05/26 00:28:02;;;;;;;3.60;2.60;;;9.50;99.90;;;;;;5074805;28;20181;-67
2021/05/26 00:30:33;;;;;;;2.87;2.30;;;9.50;99.90;;;;;;5074575;28;20200;-66
2021/05/26 00:32:59;;;;;;;3.50;2.40;;;9.50;99.90;;;;;;5074746;28;20176;-66
2021/05/26 00:35:25;;;;;;;3.30;2.30;;;9.50;99.90;;;;;;5074920;28;20201;-66
2021/05/26 00:37:51;;;;;;;3.43;2.13;;;9.50;99.90;;;;;;5074676;28;20169;-68
2021/05/26 00:40:17;;;;;;;3.07;2.07;;;9.50;99.90;;;;;;5074237;28;20169;-66
2021/05/26 00:42:43;;;;;;;4.30;2.20;;;9.50;99.90;;;;;;5074750;28;20177;-66
2021/05/26 00:45:09;;;;;;;2.33;2.13;;;9.50;99.90;;;;;;5074470;28;20676;-66
2021/05/26 00:47:46;;;;;;;2.90;1.90;;;9.50;99.90;;;;;;5074317;28;20177;-67
2021/05/26 00:50:21;;;;;;;2.13;1.67;;;9.50;99.90;;;;;;5074816;28;20169;-67
2021/05/26 00:52:47;;;;;;;4.07;1.87;;;9.50;99.90;;;;;;5074412;28;20653;-67
2021/05/26 00:55:16;;;;;;;5.97;1.80;;;9.50;99.90;;;;;;5074174;28;20216;-67
2021/05/26 00:57:41;;;;;;;1.57;1.47;;;9.50;99.90;;;;;;5074258;28;20179;-67
2021/05/26 01:00:10;;;;;;;2.00;1.47;;;9.50;99.90;;;;;;5074096;28;20161;-67
2021/05/26 01:02:36;;;;;;;2.07;1.63;;;9.40;99.90;;;;;;5091399;22;20227;-71
2021/05/26 01:05:07;;;;;;;1.97;1.50;;;9.40;99.90;;;;;;5075473;28;20204;-71
2021/05/26 01:07:33;;;;;;;2.57;1.33;;;9.40;99.90;;;;;;5056494;28;20180;-71
2021/05/26 01:09:58;;;;;;;1.73;1.27;;;9.30;99.90;;;;;;5074799;28;20175;-71
2021/05/26 01:25:54;;;;;;;3.23;1.77;;;9.20;99.90;;;;;;5071457;28;20184;-72
2021/05/26 01:28:20;;;;;;;2.40;1.60;;;9.10;99.90;;;;;;5055923;28;20177;-72
2021/05/26 01:30:47;;;;;;;3.93;1.80;;;9.10;99.90;;;;;;5073479;28;20208;-72
2021/05/26 01:33:13;;;;;;;3.47;1.60;;;9.10;99.90;;;;;;5073927;28;20181;-71
2021/05/26 01:35:43;;;;;;;2.57;1.47;;;9.00;99.90;;;;;;5072713;28;20299;-72
2021/05/26 01:38:16;;;;;;;3.03;1.60;;;9.00;99.90;;;;;;5073650;28;20168;-71
2021/05/26 01:40:42;;;;;;;2.83;2.00;;;9.00;99.90;;;;;;5073375;28;20219;-72
2021/05/26 01:43:08;;;;;;;1.73;1.40;;;9.00;99.90;;;;;;5073634;28;20653;-71
2021/05/26 01:45:33;;;;;;;1.87;1.43;;;8.90;99.90;;;;;;5073457;28;20209;-72
2021/05/26 01:47:59;;;;;;;3.40;1.80;;;9.00;99.90;;;;;;5073704;28;20181;-72
2021/05/26 01:50:24;;;;;;;3.23;1.30;;;8.90;99.90;;;;;;5073501;28;20180;-72
2021/05/26 01:52:57;;;;;;;2.70;1.60;;;8.90;99.90;;;;;;5073318;28;20188;-72
2021/05/26 01:55:22;;;;;;;2.37;1.50;;;8.80;99.90;;;;;;5073231;28;20193;-72
2021/05/26 01:57:48;;;;;;;1.83;1.40;;;8.80;99.90;;;;;;5073352;28;20176;-70
2021/05/26 02:00:17;;;;;;;3.37;1.57;;;8.80;99.90;;;;;;5073102;28;20173;-71
2021/05/26 02:02:42;;;;;;;1.37;1.23;;;8.90;99.90;;;;;;5073111;28;20306;-71
2021/05/26 02:05:09;;;;;;;3.30;1.50;;;8.90;99.90;;;;;;5073129;28;20664;-71
2021/05/26 02:07:36;;;;;;;2.60;1.50;;;9.00;99.90;;;;;;5055091;28;20173;-72
2021/05/26 02:10:02;;;;;;;2.10;1.40;;;9.00;99.90;;;;;;5072878;28;20176;-71
2021/05/26 02:12:32;;;;;;;2.23;1.70;;;9.00;99.90;;;;;;5072544;28;20197;-71
2021/05/26 02:14:59;;;;;;;3.17;2.00;;;9.00;99.90;;;;;;5073024;28;20209;-71
2021/05/26 02:17:24;;;;;;;2.33;1.70;;;9.00;99.90;;;;;;5073007;28;20173;-71
2021/05/26 02:19:50;;;;;;;6.83;1.90;;;9.00;99.90;;;;;;5072823;28;20244;-71
2021/05/26 02:22:16;;;;;;;1.97;1.70;;;9.00;99.90;;;;;;5072334;28;20185;-71
2021/05/26 02:24:42;;;;;;;3.13;1.60;;;9.00;99.90;;;;;;5072718;28;20571;-72
2021/05/26 02:27:08;;;;;;;2.90;1.97;;;9.00;99.90;;;;;;5072799;28;20173;-72
2021/05/26 02:29:34;;;;;;;5.83;2.50;;;9.00;99.90;;;;;;5073032;28;20165;-71
2021/05/26 02:32:00;;;;;;;5.07;2.53;;;9.00;99.90;;;;;;5072847;28;20204;-72
2021/05/26 02:34:26;;;;;;;2.53;2.20;;;9.00;99.90;;;;;;5075806;28;20220;-72
2021/05/26 02:36:52;;;;;;;5.10;1.90;;;9.10;99.90;;;;;;5076122;28;20208;-72
2021/05/26 02:39:17;;;;;;;4.93;2.13;;;9.10;99.90;;;;;;5077814;28;20181;-70
2021/05/26 02:41:43;;;;;;;3.00;2.37;;;9.10;99.90;;;;;;5097588;28;20180;-69
2021/05/26 02:44:09;;;;;;;4.60;2.30;;;9.10;99.90;;;;;;5097739;28;20180;-69
2021/05/26 02:46:35;;;;;;;4.90;2.60;;;9.10;99.90;;;;;;5097677;28;20167;-69
2021/05/26 02:49:02;;;;;;;3.60;2.47;;;9.10;99.90;;;;;;5097532;28;20169;-70
2021/05/26 02:51:27;;;;;;;5.07;2.63;;;9.10;99.90;;;;;;5097332;28;20181;-70
2021/05/26 02:53:53;;;;;;;4.83;2.70;;;9.00;99.90;;;;;;5097729;28;20223;-70
2021/05/26 02:56:18;;;;;;;3.00;2.70;;;9.10;99.90;;;;;;5097225;28;20205;-70
2021/05/26 02:58:44;;;;;;;4.30;3.00;;;9.10;99.90;;;;;;5083456;28;20276;-72
2021/05/26 03:01:09;;;;;;;3.93;3.00;;;9.10;99.90;;;;;;5071746;28;20209;-72
2021/05/26 03:03:35;;;;;;;4.33;2.97;;;9.10;99.90;;;;;;5072753;28;20173;-72
2021/05/26 03:06:00;;;;;;;6.30;3.37;;;9.00;99.90;;;;;;5072180;28;20181;-71
2021/05/26 03:08:26;;;;;;;4.87;3.57;;;9.00;99.90;;;;;;5072270;28;20244;-72
2021/05/26 03:10:55;;;;;;;2.90;2.67;;;9.10;99.90;;;;;;5072133;28;20272;-72
2021/05/26 03:13:22;;;;;;;5.10;3.60;;;9.10;99.90;;;;;;5071887;28;20168;-72
2021/05/26 03:15:48;;;;;;;4.90;3.47;;;9.10;99.90;;;;;;5071709;28;20200;-72
2021/05/26 03:18:13;;;;;;;6.37;3.43;;;9.10;99.90;;;;;;5071601;28;20199;-71
2021/05/26 03:20:39;;;;;;;4.50;3.60;;;9.10;99.90;;;;;;5071205;28;20248;-72
2021/05/26 03:23:05;;;;;;;5.67;3.60;;;9.10;99.90;;;;;;5071854;28;20509;-71
2021/05/26 03:25:30;;;;;;;5.27;3.83;;;9.10;99.90;;;;;;5071527;28;20693;-71
2021/05/26 03:27:56;;;;;;;5.07;4.20;;;9.10;99.90;;;;;;5071511;28;20200;-71
2021/05/26 03:30:22;;;;;;;4.40;4.00;;;9.10;99.90;;;;;;5071562;28;20531;-70
2021/05/26 03:32:48;;;;;;;4.67;3.83;;;9.10;99.90;;;;;;5071443;28;20196;-70
2021/05/26 03:35:15;;;;;;;4.80;3.77;;;9.20;99.90;;;;;;5071368;28;20262;-70
2021/05/26 03:37:41;;;;;;;4.70;4.20;;;9.20;99.90;;;;;;5071382;28;20247;-70
2021/05/26 03:40:11;;;;;;;4.90;4.17;;;9.20;99.90;;;;;;5071408;28;20517;-71
2021/05/26 03:42:36;;;;;;;4.77;4.30;;;9.20;99.90;;;;;;5070602;28;20185;-70
2021/05/26 03:45:03;;;;;;;6.20;4.63;;;9.20;99.90;;;;;;5071109;28;20226;-70
2021/05/26 03:47:28;;;;;;;5.17;4.27;;;9.30;99.90;;;;;;5071052;28;20177;-70
2021/05/26 03:49:54;;;;;;;4.80;4.30;;;9.30;99.90;;;;;;5071114;28;20176;-72
2021/05/26 03:52:19;;;;;;;4.67;4.23;;;9.30;99.90;;;;;;5070671;28;20242;-70
2021/05/26 03:54:45;;;;;;;6.43;4.43;;;9.40;99.90;;;;;;5071130;28;20189;-71
2021/05/26 03:57:10;;;;;;;6.77;4.97;;;9.40;99.90;;;;;;5070581;28;20511;-70
2021/05/26 03:59:37;;;;;;;4.70;4.13;;;9.40;99.90;;;;;;5069510;28;20195;-70
2021/05/26 04:02:03;;;;;;;5.03;4.40;;;9.50;99.90;;;;;;5070750;28;20288;-70
2021/05/26 04:04:28;;;;;;;5.43;4.60;;;9.50;99.90;;;;;;5071695;28;20643;-70
2021/05/26 04:06:54;;;;;;;4.87;4.47;;;9.50;99.90;;;;;;5071499;28;20541;-70
2021/05/26 04:09:20;;;;;;;5.90;5.27;;;9.60;99.90;;;;;;5071038;28;20516;-71
2021/05/26 04:11:46;;;;;;;5.47;4.63;;;9.70;99.90;;;;;;5070487;28;20298;-71
2021/05/26 04:14:12;;;;;;;8.83;5.30;;;9.70;99.90;;;;;;5052774;28;20322;-71
2021/05/26 04:16:37;;;;;;;5.47;4.73;;;9.70;99.90;;;;;;5070862;28;20653;-71
2021/05/26 04:19:03;;;;;;;5.90;5.30;;;9.80;99.90;;;;;;5070750;28;20184;-70
2021/05/26 04:21:30;;;;;;;6.47;5.30;;;9.80;99.90;;;;;;5070490;28;20558;-71
2021/05/26 04:23:56;;;;;;;5.80;5.23;;;9.80;99.90;;;;;;5070826;28;20244;-69
2021/05/26 04:26:22;;;;;;;5.30;4.80;;;9.80;99.90;;;;;;5070910;28;20259;-71
2021/05/26 04:28:48;;;;;;;6.67;6.07;;;9.80;99.90;;;;;;5070970;28;20310;-71
2021/05/26 04:31:14;;;;;;;5.67;5.20;;;9.80;99.90;;;;;;5070443;28;20199;-70
2021/05/26 04:33:40;;;;;;;8.33;5.93;;;9.90;99.90;;;;;;5070660;28;20177;-70
2021/05/26 04:36:06;;;;;;;7.93;5.53;;;9.90;99.90;;;;;;5071081;28;20208;-71
2021/05/26 04:38:33;;;;;;;6.73;5.83;;;9.90;99.90;;;;;;5070763;28;20235;-71
2021/05/26 04:40:59;;;;;;;6.23;5.63;;;9.90;99.90;;;;;;5071065;28;20188;-71
2021/05/26 04:43:28;;;;;;;6.67;6.07;;;10.00;99.90;;;;;;5070881;28;20261;-71
2021/05/26 04:45:54;;;;;;;6.37;5.73;;;10.10;99.90;;;;;;5070828;28;20272;-71
2021/05/26 04:48:20;;;;;;;6.50;5.90;;;10.10;99.90;;;;;;5070477;28;20200;-71
2021/05/26 04:50:46;;;;;;;6.80;6.20;;;10.10;99.90;;;;;;5069917;28;20658;-71
2021/05/26 04:53:11;;;;;;;6.87;6.17;;;10.10;99.90;;;;;;5070433;28;20578;-71
2021/05/26 04:55:37;;;;;;;7.33;6.63;;;10.10;99.90;;;;;;5072232;28;20207;-72
2021/05/26 04:58:07;;;;;;;6.57;5.97;;;10.20;99.90;;;;;;5077499;28;20173;-71
2021/05/26 05:00:34;;;;;;;7.47;6.77;;;10.20;99.90;;;;;;5079038;28;20181;-71
2021/05/26 05:03:00;;;;;;;7.10;6.43;;;10.20;99.90;;;;;;5059470;28;20240;-71
2021/05/26 05:05:31;;;;;;;6.00;5.43;;;10.30;99.90;;;;;;5077595;28;20181;-71
2021/05/26 05:07:57;;;;;;;6.37;5.77;;;10.30;99.90;;;;;;5076917;28;20211;-71
2021/05/26 05:10:22;;;;;;;7.13;6.53;;;10.40;99.90;;;;;;5060393;28;20185;-72
2021/05/26 05:12:48;;;;;;;6.37;5.77;;;10.30;99.90;;;;;;5078155;28;20300;-71
2021/05/26 05:15:14;;;;;;;7.30;6.60;;;10.40;99.90;;;;;;5078423;28;20197;-73
2021/05/26 05:17:40;;;;;;;6.87;6.17;;;10.40;99.90;;;;;;5074852;28;20165;-71
2021/05/26 05:20:06;;;;;;;6.77;6.10;;;10.40;99.90;;;;;;5074568;28;20195;-71
2021/05/26 05:22:31;;;;;;;6.47;5.87;;;10.50;99.90;;;;;;5073731;28;20608;-70
2021/05/26 05:24:57;;;;;;;6.73;6.03;;;10.60;99.90;;;;;;5073950;28;20232;-70
2021/05/26 05:27:22;;;;;;;7.53;6.77;;;10.60;99.90;;;;;;5074118;28;20205;-70
2021/05/26 05:29:47;;;;;;;7.00;6.40;;;10.60;99.90;;;;;;5074047;28;20169;-70
2021/05/26 05:32:13;;;;;;;6.90;6.30;;;10.70;99.90;;;;;;5073860;28;20677;-70
2021/05/26 05:34:39;;;;;;;7.73;7.03;;;10.70;99.90;;;;;;5073885;28;20193;-71
2021/05/26 05:37:04;;;;;;;7.17;6.47;;;10.70;99.90;;;;;;5073419;28;20596;-70
2021/05/26 05:39:29;;;;;;;7.17;6.47;;;10.60;99.90;;;;;;5055458;28;20172;-71
2021/05/26 05:41:55;;;;;;;7.30;6.60;;;10.60;99.90;;;;;;5073114;28;20200;-70
2021/05/26 05:44:21;;;;;;;7.23;6.53;;;10.60;99.90;;;;;;5073556;28;20169;-70
2021/05/26 05:46:46;;;;;;;13.10;10.50;;;10.50;99.90;;;;;;5073457;28;20169;-70
2021/05/26 05:49:12;;;;;;;7.67;6.97;;;10.50;99.90;;;;;;5073555;28;20185;-70
2021/05/26 05:51:37;;;;;;;9.33;7.70;;;10.50;99.90;;;;;;5073155;28;20251;-71
2021/05/26 05:54:03;;;;;;;8.13;7.33;;;10.50;99.90;;;;;;5073197;28;20166;-70
2021/05/26 05:56:28;;;;;;;7.13;6.43;;;10.60;99.90;;;;;;5073378;28;20246;-70
2021/05/26 05:58:54;;;;;;;8.20;7.50;;;10.70;99.90;;;;;;5073205;28;20331;-71
2021/05/26 06:01:19;;;;;;;7.57;6.87;;;10.60;99.90;;;;;;5072756;28;20234;-71
2021/05/26 06:03:45;;;;;;;7.10;6.50;;;10.60;99.90;;;;;;5073213;28;20274;-71
2021/05/26 06:06:10;;;;;;;6.77;6.20;;;10.70;99.90;;;;;;5072944;28;20183;-71
2021/05/26 06:08:36;;;;;;;7.00;6.30;;;10.70;99.90;;;;;;5055076;28;20177;-72
2021/05/26 06:11:02;;;;;;;6.93;6.33;;;11.00;99.90;;;;;;5072729;28;20184;-72
2021/05/26 06:13:28;;;;;;;7.53;6.83;;;11.20;99.90;;;;;;5073406;28;20256;-70
2021/05/26 06:15:54;;;;;;;7.07;6.47;;;11.40;99.90;;;;;;5073246;28;20201;-71
2021/05/26 06:18:20;;;;;;;7.27;6.67;;;11.30;99.90;;;;;;5073136;28;20180;-71
2021/05/26 06:20:46;;;;;;;7.03;6.37;;;11.30;99.90;;;;;;5072579;28;20518;-71
2021/05/26 06:23:11;;;;;;;8.60;7.37;;;11.30;99.90;;;;;;5055068;28;20238;-71
2021/05/26 06:25:38;;;;;;;7.40;6.17;;;11.40;99.90;;;;;;5072836;28;20668;-70
2021/05/26 06:28:04;;;;;;;7.50;6.80;;;11.30;99.90;;;;;;5054670;28;20256;-70
2021/05/26 06:30:30;;;;;;;6.90;6.30;;;11.40;99.90;;;;;;5072747;28;20205;-71
2021/05/26 06:32:55;;;;;;;7.90;7.10;;;11.40;99.90;;;;;;5073915;28;20177;-70
2021/05/26 06:35:21;;;;;;;7.37;6.67;;;11.60;99.90;;;;;;5075284;28;20545;-71
2021/05/26 06:37:46;;;;;;;7.57;6.97;;;11.60;99.90;;;;;;5056239;28;20522;-70
2021/05/26 06:40:12;;;;;;;7.67;6.97;;;11.70;99.90;;;;;;5073579;28;20187;-72
2021/05/26 06:42:38;;;;;;;8.17;6.67;;;11.70;99.90;;;;;;5072764;28;20192;-71
2021/05/26 06:45:04;;;;;;;8.43;6.73;;;11.70;99.90;;;;;;5072966;28;20173;-71
2021/05/26 06:47:30;;;;;;;7.77;6.83;;;11.80;99.90;;;;;;5073511;28;20169;-72
2021/05/26 06:49:55;;;;;;;6.50;5.90;;;11.90;99.90;;;;;;5073810;28;20177;-71
2021/05/26 06:52:21;;;;;;;8.27;6.97;;;11.80;99.90;;;;;;5087496;28;20200;-70
2021/05/26 06:54:47;;;;;;;6.60;6.10;;;11.90;99.90;;;;;;5096397;28;20223;-70
2021/05/26 06:57:12;;;;;;;7.80;7.00;;;12.00;99.90;;;;;;5097315;28;20169;-70
2021/05/26 06:59:38;;;;;;;6.77;6.07;;;12.10;99.90;;;;;;5095256;28;20173;-71
2021/05/26 07:02:03;;;;;;;8.07;6.60;;;12.10;99.90;;;;;;5101572;22;20538;-70
2021/05/26 07:04:29;;;;;;;7.47;6.77;;;12.00;99.90;;;;;;5072096;28;20184;-70
2021/05/26 07:06:57;;;;;;;8.17;7.47;;;11.90;99.90;;;;;;5072226;28;20222;-69
2021/05/26 07:09:23;;;;;;;8.87;8.13;;;11.90;99.90;;;;;;5072440;28;20248;-70
2021/05/26 07:11:48;;;;;;;8.47;7.07;;;12.00;99.90;;;;;;5073191;28;20604;-70
2021/05/26 07:14:14;;;;;;;8.97;8.10;;;11.90;99.90;;;;;;5054171;28;20637;-70
2021/05/26 07:16:40;;;;;;;9.03;7.40;;;12.10;99.90;;;;;;5071564;28;20175;-70
2021/05/26 07:19:07;;;;;;;8.60;7.43;;;12.20;99.90;;;;;;5071565;28;20165;-70
2021/05/26 07:21:32;;;;;;;8.23;7.53;;;12.30;99.90;;;;;;5071298;28;20185;-70
2021/05/26 07:23:58;;;;;;;7.70;7.00;;;12.40;99.90;;;;;;5071310;28;20172;-70
2021/05/26 07:26:24;;;;;;;7.90;7.20;;;12.60;99.90;;;;;;5071331;28;20556;-70
2021/05/26 07:28:50;;;;;;;8.23;7.43;;;12.40;99.90;;;;;;5071414;28;20189;-70
2021/05/26 07:31:16;;;;;;;8.23;7.50;;;12.30;99.90;;;;;;5070971;28;20173;-70
2021/05/26 07:33:42;;;;;;;8.73;7.93;;;12.10;99.90;;;;;;5070629;28;20169;-69
2021/05/26 07:36:08;;;;;;;7.63;7.03;;;12.10;99.90;;;;;;5071412;28;20220;-70
2021/05/26 07:38:34;;;;;;;8.30;7.40;;;12.30;99.90;;;;;;5070981;28;20202;-70
2021/05/26 07:41:00;;;;;;;7.90;7.20;;;12.40;99.90;;;;;;5071036;28;20173;-70
2021/05/26 07:43:27;;;;;;;7.30;6.60;;;12.50;99.90;;;;;;5071823;28;20173;-70
2021/05/26 07:45:53;;;;;;;6.80;6.20;;;12.50;99.90;;;;;;5072004;28;20238;-71
2021/05/26 07:48:19;;;;;;;6.97;6.37;;;12.60;99.90;;;;;;5071267;28;20637;-70
2021/05/26 07:50:45;;;;;;;7.20;6.50;;;12.80;99.90;;;;;;5071078;28;20200;-70
2021/05/26 07:53:11;;;;;;;6.47;5.97;;;13.20;99.90;;;;;;5071004;28;20767;-69
2021/05/26 07:55:36;;;;;;;6.47;5.93;;;13.10;99.90;;;;;;5071644;28;20303;-70
2021/05/26 07:58:03;;;;;;;6.67;6.07;;;12.90;99.90;;;;;;5070791;28;20180;-70
2021/05/26 08:00:28;;;;;;;7.53;6.93;;;12.50;99.90;;;;;;5070815;28;20201;-70
2021/05/26 08:02:54;;;;;;;7.63;5.77;;;12.10;99.90;;;;;;5070915;28;20248;-70
2021/05/26 08:05:21;;;;;;;6.67;5.93;;;11.90;99.90;;;;;;5070864;28;20177;-70
2021/05/26 08:07:47;;;;;;;3.17;2.80;;;11.60;99.90;;;;;;5071205;28;20161;-70
2021/05/26 08:10:13;;;;;;;1.43;1.23;;;11.40;99.90;;;;;;5071331;28;20188;-70
2021/05/26 08:12:40;;;;;;;1.57;1.10;;;11.00;99.90;;;;;;5073839;28;20284;-71
2021/05/26 08:15:09;;;;;;;1.47;1.30;;;10.50;99.90;;;;;;5074066;28;20193;-71
2021/05/26 08:17:35;;;;;;;2.07;1.00;;;10.00;99.90;;;;;;5072722;28;20607;-71
2021/05/26 08:20:01;;;;;;;1.93;1.30;;;9.20;99.90;;;;;;5071716;28;20172;-71
2021/05/26 08:22:28;;;;;;;1.17;1.07;;;9.10;99.90;;;;;;5072603;28;20217;-70
2021/05/26 08:24:53;;;;;;;0.90;0.90;;;9.10;99.90;;;;;;5074033;28;20190;-71
2021/05/26 08:27:19;;;;;;;4.07;1.70;;;9.20;99.90;;;;;;5075992;28;20263;-71
2021/05/26 08:29:44;;;;;;;2.20;1.93;;;9.40;99.90;;;;;;5076598;28;20179;-71
2021/05/26 08:32:10;;;;;;;1.90;1.60;;;9.70;99.90;;;;;;5076986;28;20207;-71
2021/05/26 08:34:35;;;;;;;4.83;1.40;;;10.00;99.90;;;;;;5076533;28;20680;-71
2021/05/26 08:37:01;;;;;;;1.87;1.37;;;10.40;99.90;;;;;;5077050;28;20177;-71
2021/05/26 08:39:26;;;;;;;1.90;1.80;;;10.70;99.90;;;;;;5076767;28;20190;-70
2021/05/26 08:41:53;;;;;;;2.47;1.47;;;11.00;99.90;;;;;;5076390;28;20196;-71
2021/05/26 08:44:20;;;;;;;3.23;2.20;;;11.40;99.90;;;;;;5079022;28;20210;-71
2021/05/26 08:46:51;;;;;;;3.13;2.50;;;11.40;99.90;;;;;;5063882;28;20189;-71
2021/05/26 08:49:18;;;;;;;7.23;4.80;;;11.50;99.90;;;;;;5082453;28;20188;-71
2021/05/26 08:51:44;;;;;;;3.57;3.27;;;11.80;99.90;;;;;;5081200;28;20246;-71
2021/05/26 08:54:09;;;;;;;3.07;2.87;;;11.80;99.90;;;;;;5082493;28;20616;-71
2021/05/26 08:56:35;;;;;;;2.80;2.60;;;11.90;99.90;;;;;;5078862;28;20251;-71
2021/05/26 08:59:00;;;;;;;4.17;2.97;;;12.20;99.90;;;;;;5081257;28;20183;-71
2021/05/26 09:01:26;;;;;;;4.30;2.87;;;12.70;99.90;;;;;;5080885;28;20208;-71
2021/05/26 09:03:53;;;;;;;3.60;3.30;;;13.00;99.90;;;;;;5082004;28;20166;-71
2021/05/26 09:06:19;;;;;;;2.60;2.40;;;12.80;99.90;;;;;;5081522;28;20207;-71
2021/05/26 09:08:52;;;;;;;2.90;2.57;;;12.80;99.90;;;;;;5082280;28;20704;-71
2021/05/26 09:11:30;;;;;;;2.53;2.30;;;12.90;99.90;;;;;;5083071;28;20698;-71
2021/05/26 09:13:56;;;;;;;2.50;2.30;;;13.00;99.90;;;;;;5083220;28;20169;-71
2021/05/26 09:16:24;;;;;;;2.97;1.93;;;12.70;99.90;;;;;;5082439;28;20573;-71
2021/05/26 09:19:01;;;;;;;2.93;2.40;;;12.70;99.90;;;;;;5081152;28;20215;-71
2021/05/26 09:21:49;;;;;;;3.73;2.30;;;12.70;99.90;;;;;;5082201;28;20196;-71
2021/05/26 09:24:21;;;;;;;2.20;2.00;;;12.70;99.90;;;;;;5082551;28;20394;-71
2021/05/26 09:26:50;;;;;;;2.20;2.03;;;12.30;99.90;;;;;;5083107;28;20195;-71
2021/05/26 09:29:22;;;;;;;3.83;2.30;;;12.30;99.90;;;;;;5084236;28;20173;-71
2021/05/26 09:31:48;;;;;;;2.30;2.10;;;12.30;99.90;;;;;;5082001;28;20192;-71
2021/05/26 09:34:33;;;;;;;4.73;2.37;;;12.40;99.90;;;;;;5081833;28;20526;-70
2021/05/26 09:36:59;;;;;;;1.60;1.50;;;12.40;99.90;;;;;;5081839;28;20181;-70
2021/05/26 09:39:48;;;;;;;1.47;1.40;;;12.50;99.90;;;;;;5080952;28;20540;-70
2021/05/26 09:42:36;;;;;;;2.67;1.80;;;12.80;99.90;;;;;;5078426;28;20247;-70
2021/05/26 09:45:15;;;;;;;2.73;2.00;;;13.30;99.90;;;;;;5077010;28;20558;-70
2021/05/26 09:47:42;;;;;;;2.33;1.70;;;13.60;99.90;;;;;;5075987;28;20196;-71
2021/05/26 09:50:37;;;;;;;2.97;1.87;;;13.80;99.90;;;;;;5076217;28;20177;-70
2021/05/26 09:53:08;;;;;;;2.47;2.03;;;13.90;99.90;;;;;;5062583;28;20215;-71
2021/05/26 09:55:37;;;;;;;1.57;1.43;;;14.10;99.90;;;;;;5076574;28;20196;-70
2021/05/26 09:58:04;;;;;;;2.03;1.20;;;14.10;99.90;;;;;;5077155;28;20200;-71
2021/05/26 10:00:30;;;;;;;2.07;1.57;;;14.10;99.90;;;;;;5077197;28;20173;-71
2021/05/26 10:02:56;;;;;;;1.47;1.37;;;14.50;99.90;;;;;;5078002;28;20193;-71
2021/05/26 10:05:24;;;;;;;1.70;1.60;;;14.90;99.90;;;;;;5076504;28;20181;-71
2021/05/26 10:07:55;;;;;;;2.90;1.97;;;15.00;99.90;;;;;;5079726;28;20173;-71
2021/05/26 10:10:24;;;;;;;1.93;1.80;;;15.00;99.90;;;;;;5063514;28;20205;-71
2021/05/26 10:12:55;;;;;;;2.50;2.30;;;14.80;99.90;;;;;;5081271;28;20197;-71
2021/05/26 10:15:23;;;;;;;2.63;2.10;;;14.60;99.90;;;;;;5082526;28;20196;-71
2021/05/26 10:17:51;;;;;;;3.77;2.10;;;14.80;99.90;;;;;;5081916;28;20175;-71
2021/05/26 10:20:23;;;;;;;3.20;2.30;;;15.00;99.90;;;;;;5081692;28;20207;-71
2021/05/26 10:22:50;;;;;;;2.23;2.13;;;14.90;99.90;;;;;;5079520;28;20252;-71
2021/05/26 10:25:16;;;;;;;2.30;2.10;;;14.80;99.90;;;;;;5078786;28;20181;-71
2021/05/26 10:27:47;;;;;;;3.23;1.80;;;14.90;99.90;;;;;;5078914;28;20188;-71
2021/05/26 10:30:14;;;;;;;2.50;2.00;;;14.90;99.90;;;;;;5079753;28;20192;-71
2021/05/26 10:32:59;;;;;;;2.03;1.93;;;15.40;99.90;;;;;;5078258;28;20573;-71
2021/05/26 10:35:52;;;;;;;2.03;1.83;;;15.50;99.90;;;;;;5077809;28;20724;-71
2021/05/26 10:38:17;;;;;;;2.47;1.70;;;15.90;99.90;;;;;;5078638;28;20177;-70
2021/05/26 10:40:48;;;;;;;2.03;1.83;;;15.90;99.90;;;;;;5078209;28;20262;-71
2021/05/26 10:43:18;;;;;;;3.40;1.70;;;15.70;99.90;;;;;;5078066;28;20204;-71
2021/05/26 10:45:54;;;;;;;3.17;1.70;;;15.40;99.90;;;;;;5076067;28;20177;-70
2021/05/26 10:48:38;;;;;;;1.90;1.80;;;15.20;99.90;;;;;;5076561;28;20641;-70
2021/05/26 10:51:05;;;;;;;2.80;1.47;;;14.90;99.90;;;;;;5075323;28;20255;-69
2021/05/26 10:53:41;;;;;;;2.87;2.07;;;14.50;99.90;;;;;;5075064;28;20173;-72
2021/05/26 10:56:27;;;;;;;2.67;1.67;;;14.20;99.90;;;;;;5057821;28;20737;-69
2021/05/26 10:59:08;;;;;;;1.67;1.50;;;14.20;99.90;;;;;;5073966;28;20197;-70
2021/05/26 11:02:02;;;;;;;3.47;1.70;;;14.00;99.90;;;;;;5072079;28;20197;-70
2021/05/26 11:04:29;;;;;;;4.60;2.30;;;13.40;99.90;;;;;;5077563;28;20675;-71
2021/05/26 11:07:18;;;;;;;3.13;1.90;;;12.30;99.90;;;;;;5071728;28;20165;-71
2021/05/26 11:10:01;;;;;;;2.40;1.83;;;11.50;99.90;;;;;;5071518;28;20162;-71
2021/05/26 11:12:27;;;;;;;2.17;1.90;;;11.30;99.90;;;;;;5071527;28;20187;-75
2021/05/26 11:14:54;;;;;;;2.67;2.37;;;10.80;99.90;;;;;;5071234;28;20243;-72
2021/05/26 11:17:24;;;;;;;3.13;2.20;;;10.40;99.90;;;;;;5071208;28;20169;-72
2021/05/26 11:19:50;;;;;;;4.17;3.77;;;10.30;99.90;;;;;;5072222;28;20591;-70
2021/05/26 11:22:18;;;;;;;2.90;2.70;;;10.10;99.90;;;;;;5071517;28;20193;-71
2021/05/26 11:24:46;;;;;;;2.90;2.60;;;10.00;99.90;;;;;;5072881;28;20571;-71
2021/05/26 11:27:17;;;;;;;4.17;3.13;;;9.90;99.90;;;;;;5071723;28;20230;-71
2021/05/26 11:29:43;;;;;;;3.40;3.10;;;9.90;99.90;;;;;;5072558;28;20188;-71
2021/05/26 11:32:15;;;;;;;4.27;3.90;;;9.90;99.90;;;;;;5053207;28;20197;-71
2021/05/26 11:34:43;;;;;;;4.30;3.80;;;10.00;99.90;;;;;;5071958;28;20197;-72
2021/05/26 11:37:09;;;;;;;3.93;2.83;;;10.20;99.90;;;;;;5071826;28;20244;-71
2021/05/26 11:39:36;;;;;;;3.07;2.77;;;10.10;99.90;;;;;;5071707;28;20173;-72
2021/05/26 11:42:18;;;;;;;2.77;2.57;;;10.00;99.90;;;;;;5070755;28;20683;-71
2021/05/26 11:44:47;;;;;;;3.67;2.20;;;10.00;99.90;;;;;;5053192;28;20176;-71
2021/05/26 11:47:12;;;;;;;1.60;1.50;;;10.10;99.90;;;;;;5071429;28;20317;-72
2021/05/26 11:49:40;;;;;;;1.43;1.20;;;10.10;99.90;;;;;;5072333;28;20183;-71
2021/05/26 11:52:10;;;;;;;1.10;1.00;;;10.00;99.90;;;;;;5078730;28;20193;-72
2021/05/26 11:54:58;;;;;;;1.30;1.20;;;10.00;99.90;;;;;;5075883;28;20169;-71
2021/05/26 11:57:41;;;;;;;1.43;1.33;;;10.10;99.90;;;;;;5073019;28;20169;-72
2021/05/26 12:00:18;;;;;;;2.80;2.50;;;10.20;99.90;;;;;;5071544;28;20177;-71
2021/05/26 12:03:00;;;;;;;4.70;2.97;;;10.30;99.90;;;;;;5071001;28;20579;-71
2021/05/26 12:05:47;;;;;;;2.57;2.07;;;10.20;99.90;;;;;;5070808;28;20177;-73
2021/05/26 12:08:16;;;;;;;3.00;1.87;;;10.40;99.90;;;;;;5071591;28;20561;-71
2021/05/26 12:10:43;;;;;;;1.93;1.83;;;10.70;99.90;;;;;;5070377;28;20191;-72
2021/05/26 12:13:09;;;;;;;2.93;2.00;;;10.70;99.90;;;;;;5071024;28;20618;-72
2021/05/26 12:15:34;;;;;;;2.77;2.20;;;10.90;99.90;;;;;;5070399;28;20192;-71
2021/05/26 12:18:01;;;;;;;2.90;2.70;;;11.50;99.90;;;;;;5069941;28;20216;-70
2021/05/26 12:20:26;;;;;;;2.37;2.13;;;12.10;99.90;;;;;;5070249;28;20169;-71
2021/05/26 12:22:55;;;;;;;2.70;2.20;;;12.20;99.90;;;;;;5070856;28;20199;-70
2021/05/26 12:25:21;;;;;;;2.30;2.03;;;12.50;99.90;;;;;;5071429;28;20181;-71
2021/05/26 12:27:48;;;;;;;1.80;1.60;;;12.60;99.90;;;;;;5070609;28;20169;-70
2021/05/26 12:30:25;;;;;;;3.67;2.30;;;12.70;99.90;;;;;;5070491;28;20181;-70
2021/05/26 12:32:53;;;;;;;2.00;1.80;;;12.60;99.90;;;;;;5070454;28;20254;-70
2021/05/26 12:35:20;;;;;;;2.60;1.70;;;12.70;99.90;;;;;;5070640;28;20204;-70
2021/05/26 12:37:51;;;;;;;2.00;1.50;;;12.90;99.90;;;;;;5052375;28;20187;-70
2021/05/26 12:40:17;;;;;;;3.03;1.30;;;12.70;99.90;;;;;;5070511;28;20173;-70
2021/05/26 12:42:44;;;;;;;1.80;1.50;;;12.50;99.90;;;;;;5070188;28;20220;-70
2021/05/26 12:45:27;;;;;;;1.47;1.33;;;12.30;99.90;;;;;;5071221;28;20226;-70
2021/05/26 12:47:54;;;;;;;1.67;1.40;;;12.30;99.90;;;;;;5071201;28;20200;-70
2021/05/26 12:50:23;;;;;;;1.40;1.40;;;12.50;99.90;;;;;;5070843;28;20169;-70
2021/05/26 12:52:51;;;;;;;2.23;1.30;;;12.60;99.90;;;;;;5070423;28;20196;-70
2021/05/26 12:55:17;;;;;;;1.60;1.50;;;12.50;99.90;;;;;;5070673;28;20201;-70
2021/05/26 12:57:43;;;;;;;1.43;1.33;;;12.80;99.90;;;;;;5070452;28;20187;-70
2021/05/26 13:00:14;;;;;;;1.83;1.60;;;13.00;99.90;;;;;;5070820;28;20637;-71
2021/05/26 13:02:45;;;;;;;2.50;2.00;;;13.20;99.90;;;;;;5092219;22;20452;-68
2021/05/26 13:05:16;;;;;;;1.87;1.40;;;13.60;99.90;;;;;;5070613;28;20177;-69
2021/05/26 13:07:44;;;;;;;3.27;1.80;;;14.30;99.90;;;;;;5052648;28;20173;-68